| time (UTC) | temp F | wind direction | speed knots | gust knots | rain 1hr in | rain 24hr in | rain mn in | humidity % | barometer mb |
| 20260507070055 | 50 | 27 | 1.7 | 7.8 | 0.00 | 0.28 | 0.01 | 92 | 1005.0 |
| 20260507065545 | 50 | 342 | 3.5 | 7.8 | 0.00 | 0.28 | 0.01 | 91 | 1005.0 |
| 20260507065045 | 50 | 300 | 4.3 | 7.8 | 0.00 | 0.28 | 0.01 | 92 | 1005.5 |
| 20260507064554 | 50 | 280 | 2.6 | 6.1 | 0.00 | 0.28 | 0.01 | 92 | 1005.4 |
| 20260507064052 | 50 | 267 | 1.7 | 7.0 | 0.00 | 0.28 | 0.01 | 92 | 1005.1 |
| 20260507063545 | 50 | 300 | 3.5 | 7.0 | 0.00 | 0.28 | 0.01 | 93 | 1005.2 |
| 20260507063059 | 50 | 278 | 3.5 | 7.0 | 0.00 | 0.28 | 0.01 | 93 | 1005.1 |
| 20260507062549 | 50 | 264 | 3.5 | 7.8 | 0.00 | 0.28 | 0.01 | 93 | 1005.2 |
| 20260507062047 | 51 | 255 | 4.3 | 7.8 | 0.00 | 0.28 | 0.01 | 93 | 1005.3 |
| 20260507061551 | 51 | 277 | 2.6 | 4.3 | 0.00 | 0.28 | 0.01 | 93 | 1005.2 |
| 20260507061047 | 51 | 271 | 1.7 | 5.2 | 0.00 | 0.28 | 0.01 | 93 | 1005.0 |
| 20260507060546 | 51 | 328 | 1.7 | 5.2 | 0.00 | 0.28 | 0.01 | 93 | 1004.8 |
| 20260507060057 | 51 | 267 | 1.7 | 5.2 | 0.00 | 0.28 | 0.01 | 93 | 1004.8 |
| 20260507055547 | 51 | 252 | 1.7 | 9.6 | 0.00 | 0.28 | 0.01 | 93 | 1005.0 |
| 20260507055046 | 51 | 297 | 2.6 | 9.6 | 0.00 | 0.28 | 0.01 | 93 | 1004.9 |
| 20260507054554 | 51 | 271 | 4.3 | 9.6 | 0.00 | 0.28 | 0.01 | 93 | 1005.0 |
| 20260507054045 | 51 | 298 | 3.5 | 7.8 | 0.00 | 0.28 | 0.01 | 93 | 1004.8 |
| 20260507053547 | 52 | 292 | 5.2 | 7.8 | 0.00 | 0.28 | 0.01 | 92 | 1004.8 |
| 20260507053049 | 52 | 304 | 2.6 | 7.8 | 0.00 | 0.28 | 0.01 | 93 | 1004.7 |
| 20260507052545 | 52 | 264 | 3.5 | 9.6 | 0.00 | 0.28 | 0.01 | 93 | 1004.5 |
| 20260507052045 | 52 | 259 | 5.2 | 9.6 | 0.00 | 0.28 | 0.01 | 93 | 1004.8 |
| 20260507051558 | 52 | 232 | 4.3 | 8.7 | 0.00 | 0.28 | 0.01 | 93 | 1005.0 |
| 20260507051048 | 52 | 300 | 3.5 | 7.0 | 0.00 | 0.28 | 0.01 | 93 | 1004.8 |
| 20260507050550 | 53 | 256 | 2.6 | 9.6 | 0.01 | 0.28 | 0.01 | 93 | 1004.7 |
| 20260507050050 | 53 | 294 | 3.5 | 9.6 | 0.01 | 0.28 | 0.01 | 93 | 1004.7 |
| 20260507045549 | 53 | 290 | 4.3 | 10.4 | 0.01 | 0.28 | 0.01 | 93 | 1004.7 |
| 20260507045046 | 53 | 269 | 3.5 | 10.4 | 0.01 | 0.28 | 0.01 | 94 | 1004.8 |
| 20260507044558 | 53 | 314 | 5.2 | 10.4 | 0.01 | 0.28 | 0.01 | 94 | 1004.9 |
| 20260507044047 | 54 | 264 | 1.7 | 7.0 | 0.01 | 0.28 | 0.01 | 95 | 1004.7 |
| 20260507043547 | 54 | 300 | 4.3 | 7.0 | 0.01 | 0.28 | 0.01 | 94 | 1004.8 |
| 20260507043055 | 54 | 284 | 3.5 | 9.6 | 0.01 | 0.28 | 0.01 | 94 | 1004.4 |
| 20260507042547 | 54 | 228 | 2.6 | 9.6 | 0.01 | 0.28 | 0.01 | 93 | 1004.3 |
| 20260507042047 | 54 | 236 | 6.1 | 13.0 | 0.01 | 0.28 | 0.01 | 93 | 1004.3 |
| 20260507041551 | 55 | 267 | 2.6 | 13.0 | 0.01 | 0.28 | 0.01 | 94 | 1004.1 |
| 20260507041050 | 55 | 311 | 4.3 | 13.0 | 0.00 | 0.27 | 0.00 | 94 | 1004.2 |
| 20260507040547 | 55 | 254 | 2.6 | 7.0 | 0.01 | 0.27 | 0.00 | 94 | 1004.3 |
| 20260507040055 | 55 | 279 | 2.6 | 10.4 | 0.01 | 0.27 | 0.00 | 94 | 1004.3 |
| 20260507035547 | 55 | 281 | 4.3 | 10.4 | 0.01 | 0.27 | 0.27 | 94 | 1004.2 |
| 20260507035047 | 56 | 259 | 6.1 | 10.4 | 0.02 | 0.27 | 0.27 | 95 | 1004.3 |
| 20260507034556 | 56 | 302 | 4.3 | 9.6 | 0.02 | 0.27 | 0.27 | 95 | 1004.4 |
| 20260507034047 | 56 | 266 | 4.3 | 9.6 | 0.02 | 0.27 | 0.27 | 96 | 1004.4 |
| 20260507033547 | 56 | 264 | 4.3 | 9.6 | 0.02 | 0.27 | 0.27 | 97 | 1004.5 |
| 20260507033055 | 56 | 277 | 6.1 | 13.9 | 0.02 | 0.27 | 0.27 | 98 | 1004.5 |
| 20260507032547 | 56 | 270 | 7.0 | 13.9 | 0.02 | 0.27 | 0.27 | 100 | 1004.3 |
| 20260507032050 | 55 | 278 | 2.6 | 8.7 | 0.02 | 0.27 | 0.27 | 100 | 1004.3 |
| 20260507031553 | 55 | 211 | 1.7 | 7.8 | 0.02 | 0.27 | 0.27 | 100 | 1003.9 |
| 20260507031049 | 54 | 299 | 2.6 | 7.8 | 0.02 | 0.27 | 0.27 | 99 | 1004.0 |
| 20260507030546 | 54 | 293 | 0.9 | 3.5 | 0.01 | 0.26 | 0.26 | 99 | 1003.9 |
| 20260507030054 | 54 | 174 | 0.9 | 3.5 | 0.01 | 0.26 | 0.26 | 99 | 1003.6 |
| 20260507025549 | 54 | 0 | 0.0 | 2.6 | 0.01 | 0.26 | 0.26 | 99 | 1003.7 |
| 20260507025050 | 54 | 165 | 1.7 | 4.3 | 0.00 | 0.25 | 0.25 | 99 | 1003.7 |
| 20260507024606 | 54 | 143 | 0.9 | 4.3 | 0.00 | 0.25 | 0.25 | 99 | 1003.7 |
| 20260507024047 | 54 | 187 | 1.7 | 4.3 | 0.00 | 0.25 | 0.25 | 99 | 1003.7 |
| 20260507023552 | 54 | 150 | 1.7 | 5.2 | 0.00 | 0.25 | 0.25 | 99 | 1003.8 |
| 20260507023052 | 54 | 160 | 1.7 | 5.2 | 0.00 | 0.25 | 0.25 | 99 | 1003.9 |
| 20260507022549 | 54 | 152 | 3.5 | 5.2 | 0.00 | 0.25 | 0.25 | 99 | 1003.9 |
| 20260507022047 | 54 | 160 | 3.5 | 5.2 | 0.00 | 0.25 | 0.25 | 99 | 1004.0 |
| 20260507021551 | 54 | 172 | 2.6 | 5.2 | 0.00 | 0.25 | 0.25 | 99 | 1003.9 |
| 20260507021047 | 54 | 165 | 3.5 | 6.1 | 0.00 | 0.25 | 0.25 | 99 | 1004.1 |
| 20260507020547 | 54 | 161 | 3.5 | 6.1 | 0.00 | 0.25 | 0.25 | 99 | 1004.2 |
| 20260507020109 | 54 | 157 | 3.5 | 4.3 | 0.00 | 0.25 | 0.25 | 99 | 1004.4 |
| 20260507015546 | 54 | 150 | 1.7 | 4.3 | 0.00 | 0.25 | 0.25 | 99 | 1004.4 |
| 20260507015047 | 54 | 219 | 1.7 | 4.3 | 0.00 | 0.25 | 0.25 | 99 | 1004.4 |
| 20260507014605 | 54 | 139 | 2.6 | 5.2 | 0.00 | 0.25 | 0.25 | 99 | 1004.4 |
| 20260507014047 | 54 | 157 | 2.6 | 5.2 | 0.00 | 0.25 | 0.25 | 99 | 1004.2 |
| 20260507013549 | 54 | 157 | 2.6 | 5.2 | 0.00 | 0.25 | 0.25 | 99 | 1004.4 |
| 20260507013054 | 54 | 208 | 2.6 | 5.2 | 0.00 | 0.25 | 0.25 | 99 | 1004.5 |
| 20260507012546 | 54 | 143 | 1.7 | 5.2 | 0.00 | 0.25 | 0.25 | 99 | 1004.6 |
| 20260507012046 | 53 | 203 | 2.6 | 6.1 | 0.00 | 0.25 | 0.25 | 99 | 1004.4 |
| 20260507011555 | 53 | 165 | 1.7 | 7.0 | 0.00 | 0.25 | 0.25 | 99 | 1004.4 |
| 20260507011045 | 53 | 212 | 2.6 | 7.0 | 0.00 | 0.25 | 0.25 | 99 | 1004.5 |
| 20260507010546 | 53 | 160 | 3.5 | 7.0 | 0.00 | 0.25 | 0.25 | 98 | 1004.5 |
| 20260507010054 | 53 | 182 | 3.5 | 7.8 | 0.00 | 0.25 | 0.25 | 98 | 1004.5 |
| 20260507005546 | 53 | 172 | 4.3 | 7.8 | 0.00 | 0.25 | 0.25 | 98 | 1004.5 |
| 20260507005047 | 53 | 200 | 5.2 | 7.8 | 0.00 | 0.25 | 0.25 | 98 | 1004.6 |
| 20260507004551 | 53 | 185 | 5.2 | 7.8 | 0.00 | 0.25 | 0.25 | 98 | 1004.7 |
| 20260507004046 | 54 | 176 | 4.3 | 7.8 | 0.00 | 0.25 | 0.25 | 98 | 1004.7 |
| 20260507003547 | 54 | 165 | 4.3 | 7.8 | 0.00 | 0.25 | 0.25 | 98 | 1004.6 |
| 20260507003056 | 54 | 152 | 5.2 | 8.7 | 0.00 | 0.25 | 0.25 | 98 | 1004.7 |
| 20260507002547 | 54 | 193 | 7.0 | 8.7 | 0.00 | 0.25 | 0.25 | 98 | 1004.5 |
| 20260507002045 | 54 | 158 | 5.2 | 9.6 | 0.00 | 0.25 | 0.25 | 98 | 1004.5 |
| 20260507001557 | 54 | 160 | 5.2 | 9.6 | 0.00 | 0.25 | 0.25 | 98 | 1004.6 |
| 20260507001046 | 54 | 161 | 6.1 | 11.3 | 0.00 | 0.25 | 0.25 | 98 | 1004.5 |
| 20260507000547 | 54 | 174 | 5.2 | 11.3 | 0.00 | 0.25 | 0.25 | 98 | 1004.5 |
| 20260507000058 | 54 | 172 | 7.8 | 12.2 | 0.00 | 0.25 | 0.25 | 98 | 1004.5 |
| 20260506235546 | 54 | 195 | 4.3 | 12.2 | 0.00 | 0.25 | 0.25 | 98 | 1004.6 |
| 20260506235048 | 54 | 196 | 8.7 | 13.0 | 0.00 | 0.25 | 0.25 | 98 | 1004.6 |
| 20260506234605 | 54 | 167 | 7.8 | 13.0 | 0.00 | 0.25 | 0.25 | 98 | 1004.5 |
| 20260506234046 | 54 | 208 | 5.2 | 13.0 | 0.00 | 0.25 | 0.25 | 98 | 1004.5 |
| 20260506233549 | 54 | 141 | 7.0 | 13.0 | 0.00 | 0.25 | 0.25 | 98 | 1004.6 |
| 20260506233058 | 54 | 184 | 7.0 | 12.2 | 0.00 | 0.25 | 0.25 | 98 | 1004.5 |
| 20260506232546 | 54 | 176 | 5.2 | 11.3 | 0.00 | 0.25 | 0.25 | 98 | 1004.5 |
| 20260506232048 | 54 | 150 | 6.1 | 11.3 | 0.00 | 0.25 | 0.25 | 98 | 1004.7 |
| 20260506231601 | 54 | 139 | 6.1 | 11.3 | 0.00 | 0.25 | 0.25 | 97 | 1004.7 |
| 20260506231048 | 53 | 158 | 4.3 | 11.3 | 0.01 | 0.25 | 0.25 | 97 | 1004.9 |
| 20260506230546 | 53 | 160 | 6.1 | 13.9 | 0.01 | 0.25 | 0.25 | 97 | 1004.8 |
| 20260506230058 | 53 | 159 | 6.1 | 13.9 | 0.01 | 0.25 | 0.25 | 97 | 1004.8 |
| 20260506225547 | 53 | 203 | 4.3 | 13.0 | 0.01 | 0.25 | 0.25 | 97 | 1004.8 |
| 20260506225046 | 53 | 169 | 6.1 | 13.0 | 0.01 | 0.25 | 0.25 | 97 | 1004.7 |
| 20260506224553 | 53 | 162 | 7.8 | 11.3 | 0.01 | 0.25 | 0.25 | 97 | 1004.8 |
| 20260506224045 | 54 | 212 | 7.0 | 13.0 | 0.02 | 0.25 | 0.25 | 97 | 1004.8 |
| 20260506223544 | 54 | 147 | 6.1 | 14.8 | 0.02 | 0.25 | 0.25 | 97 | 1005.0 |
| 20260506223057 | 54 | 157 | 7.8 | 17.4 | 0.03 | 0.25 | 0.25 | 97 | 1004.8 |
| 20260506222546 | 54 | 212 | 7.0 | 17.4 | 0.04 | 0.25 | 0.25 | 97 | 1005.0 |
| 20260506222046 | 54 | 231 | 8.7 | 17.4 | 0.04 | 0.25 | 0.25 | 97 | 1004.9 |
| 20260506221553 | 54 | 140 | 8.7 | 16.5 | 0.05 | 0.25 | 0.25 | 97 | 1004.9 |
| 20260506221046 | 55 | 207 | 8.7 | 14.8 | 0.04 | 0.24 | 0.24 | 97 | 1004.9 |
| 20260506220547 | 55 | 140 | 7.8 | 14.8 | 0.04 | 0.24 | 0.24 | 97 | 1005.0 |
| 20260506220057 | 55 | 202 | 8.7 | 13.9 | 0.05 | 0.24 | 0.24 | 97 | 1005.1 |
| 20260506215546 | 55 | 183 | 7.8 | 13.9 | 0.06 | 0.24 | 0.24 | 97 | 1005.0 |
| 20260506215048 | 55 | 165 | 6.1 | 12.2 | 0.07 | 0.24 | 0.24 | 97 | 1005.1 |
| 20260506214608 | 55 | 195 | 6.1 | 14.8 | 0.07 | 0.24 | 0.24 | 97 | 1005.2 |
| 20260506214047 | 55 | 166 | 6.1 | 14.8 | 0.07 | 0.23 | 0.23 | 97 | 1005.0 |
| 20260506213546 | 55 | 206 | 7.0 | 14.8 | 0.08 | 0.23 | 0.23 | 97 | 1005.4 |
| 20260506213113 | 55 | 201 | 7.8 | 14.8 | 0.07 | 0.22 | 0.22 | 97 | 1005.2 |
| 20260506212546 | 55 | 147 | 7.0 | 13.0 | 0.06 | 0.21 | 0.21 | 97 | 1005.4 |
| 20260506212046 | 55 | 150 | 5.2 | 11.3 | 0.07 | 0.21 | 0.21 | 96 | 1005.5 |
| 20260506211608 | 55 | 184 | 6.1 | 11.3 | 0.06 | 0.20 | 0.20 | 96 | 1005.4 |
| 20260506211046 | 56 | 192 | 6.1 | 11.3 | 0.07 | 0.20 | 0.20 | 96 | 1005.4 |
| 20260506210545 | 56 | 158 | 4.3 | 16.5 | 0.07 | 0.20 | 0.20 | 96 | 1005.7 |
| 20260506205545 | 56 | 139 | 7.0 | 16.5 | 0.05 | 0.18 | 0.18 | 95 | 1005.6 |
| 20260506205044 | 56 | 170 | 6.1 | 14.8 | 0.04 | 0.17 | 0.17 | 95 | 1005.7 |
| 20260506204601 | 57 | 234 | 6.1 | 14.8 | 0.05 | 0.17 | 0.17 | 95 | 1005.7 |
| 20260506204046 | 57 | 186 | 7.8 | 12.2 | 0.04 | 0.16 | 0.16 | 95 | 1005.7 |
| 20260506203548 | 57 | 202 | 6.1 | 12.2 | 0.03 | 0.15 | 0.15 | 95 | 1005.6 |
| 20260506203102 | 57 | 157 | 5.2 | 11.3 | 0.04 | 0.15 | 0.15 | 96 | 1005.7 |
| 20260506202547 | 57 | 150 | 6.1 | 11.3 | 0.04 | 0.15 | 0.15 | 96 | 1005.5 |
| 20260506202049 | 57 | 161 | 6.1 | 10.4 | 0.04 | 0.14 | 0.14 | 96 | 1005.6 |
| 20260506201601 | 57 | 157 | 5.2 | 7.0 | 0.05 | 0.14 | 0.14 | 96 | 1005.4 |
| 20260506201048 | 57 | 139 | 3.5 | 6.1 | 0.10 | 0.13 | 0.13 | 96 | 1005.5 |
| 20260506200546 | 57 | 160 | 3.5 | 7.8 | 0.10 | 0.13 | 0.13 | 96 | 1005.5 |
| 20260506200059 | 56 | 149 | 3.5 | 7.8 | 0.11 | 0.13 | 0.13 | 96 | 1005.3 |
| 20260506195547 | 56 | 145 | 3.5 | 10.4 | 0.11 | 0.13 | 0.13 | 95 | 1005.5 |
| 20260506195046 | 56 | 153 | 6.1 | 10.4 | 0.11 | 0.13 | 0.13 | 95 | 1005.7 |
| 20260506194609 | 56 | 163 | 7.0 | 10.4 | 0.11 | 0.12 | 0.12 | 95 | 1006.2 |
| 20260506194045 | 56 | 140 | 1.7 | 6.1 | 0.12 | 0.12 | 0.12 | 95 | 1005.7 |
| 20260506193547 | 56 | 160 | 3.5 | 6.1 | 0.12 | 0.12 | 0.12 | 94 | 1006.0 |
| 20260506193053 | 57 | 156 | 3.5 | 5.2 | 0.11 | 0.11 | 0.11 | 94 | 1006.2 |
| 20260506192551 | 57 | 205 | 0.9 | 6.1 | 0.11 | 0.11 | 0.11 | 93 | 1006.5 |
| 20260506192045 | 57 | 191 | 3.5 | 7.8 | 0.10 | 0.10 | 0.10 | 93 | 1006.6 |
| 20260506191556 | 57 | 137 | 3.5 | 7.8 | 0.09 | 0.09 | 0.09 | 92 | 1006.6 |
| 20260506191047 | 57 | 191 | 3.5 | 5.2 | 0.03 | 0.03 | 0.03 | 92 | 1006.7 |
| 20260506190549 | 57 | 134 | 0.9 | 5.2 | 0.03 | 0.03 | 0.03 | 91 | 1006.3 |
| 20260506190054 | 58 | 153 | 3.5 | 7.0 | 0.02 | 0.02 | 0.02 | 90 | 1006.4 |
| 20260506185546 | 58 | 162 | 3.5 | 7.0 | 0.02 | 0.02 | 0.02 | 89 | 1006.2 |
| 20260506185049 | 58 | 193 | 4.3 | 7.0 | 0.02 | 0.02 | 0.02 | 88 | 1006.3 |
| 20260506184604 | 58 | 165 | 3.5 | 11.3 | 0.01 | 0.01 | 0.01 | 87 | 1006.7 |
| 20260506184101 | 58 | 195 | 4.3 | 11.3 | 0.00 | 0.00 | 0.00 | 86 | 1006.5 |
| 20260506183550 | 59 | 250 | 2.6 | 11.3 | 0.00 | 0.00 | 0.00 | 85 | 1006.7 |
| 20260506183103 | 59 | 200 | 5.2 | 11.3 | 0.00 | 0.00 | 0.00 | 84 | 1006.4 |
| 20260506182549 | 59 | 196 | 5.2 | 11.3 | 0.00 | 0.00 | 0.00 | 83 | 1006.0 |
| 20260506182052 | 59 | 138 | 6.1 | 15.6 | 0.00 | 0.00 | 0.00 | 83 | 1005.9 |
| 20260506181552 | 59 | 176 | 7.8 | 16.5 | 0.00 | 0.00 | 0.00 | 83 | 1006.0 |
| 20260506181052 | 59 | 174 | 7.8 | 16.5 | 0.00 | 0.00 | 0.00 | 82 | 1005.9 |
| 20260506180547 | 59 | 219 | 7.8 | 13.0 | 0.00 | 0.00 | 0.00 | 82 | 1006.0 |
| 20260506180058 | 59 | 161 | 8.7 | 15.6 | 0.00 | 0.00 | 0.00 | 82 | 1006.1 |
| 20260506175551 | 59 | 167 | 7.0 | 17.4 | 0.00 | 0.00 | 0.00 | 81 | 1006.2 |
| 20260506175049 | 60 | 144 | 7.8 | 17.4 | 0.00 | 0.00 | 0.00 | 81 | 1006.0 |
| 20260506174552 | 60 | 157 | 7.8 | 15.6 | 0.00 | 0.00 | 0.00 | 80 | 1006.3 |
| 20260506174051 | 60 | 180 | 9.6 | 15.6 | 0.00 | 0.00 | 0.00 | 80 | 1006.2 |
| 20260506173547 | 61 | 201 | 7.8 | 18.2 | 0.00 | 0.00 | 0.00 | 79 | 1006.4 |
| 20260506173103 | 61 | 209 | 7.8 | 18.2 | 0.00 | 0.00 | 0.00 | 79 | 1006.4 |
| 20260506172551 | 62 | 165 | 8.7 | 18.2 | 0.00 | 0.00 | 0.00 | 78 | 1006.4 |
| 20260506172046 | 62 | 138 | 7.0 | 17.4 | 0.00 | 0.00 | 0.00 | 79 | 1006.4 |
| 20260506171557 | 62 | 146 | 8.7 | 20.9 | 0.00 | 0.00 | 0.00 | 79 | 1006.6 |
| 20260506171053 | 62 | 137 | 7.8 | 20.9 | 0.00 | 0.00 | 0.00 | 78 | 1006.6 |
| 20260506170549 | 63 | 210 | 10.4 | 20.9 | 0.00 | 0.00 | 0.00 | 78 | 1006.6 |
| 20260506170113 | 63 | 171 | 9.6 | 18.2 | 0.00 | 0.00 | 0.00 | 78 | 1006.7 |
| 20260506165553 | 63 | 153 | 7.8 | 14.8 | 0.00 | 0.00 | 0.00 | 79 | 1006.7 |
| 20260506165051 | 63 | 169 | 9.6 | 16.5 | 0.00 | 0.00 | 0.00 | 79 | 1006.9 |
| 20260506164601 | 63 | 214 | 10.4 | 16.5 | 0.00 | 0.00 | 0.00 | 79 | 1006.9 |
| 20260506164049 | 63 | 143 | 7.8 | 13.9 | 0.00 | 0.00 | 0.00 | 80 | 1006.9 |
| 20260506163553 | 63 | 156 | 7.0 | 14.8 | 0.00 | 0.00 | 0.00 | 80 | 1007.0 |
| 20260506163111 | 63 | 151 | 8.7 | 14.8 | 0.00 | 0.00 | 0.00 | 80 | 1007.1 |
| 20260506162550 | 63 | 187 | 3.5 | 11.3 | 0.00 | 0.00 | 0.00 | 81 | 1007.3 |
| 20260506162049 | 63 | 151 | 7.8 | 11.3 | 0.00 | 0.00 | 0.00 | 80 | 1007.5 |
| 20260506161555 | 63 | 156 | 5.2 | 9.6 | 0.00 | 0.00 | 0.00 | 80 | 1007.5 |
| 20260506161049 | 63 | 165 | 6.1 | 13.9 | 0.00 | 0.00 | 0.00 | 81 | 1007.7 |
| 20260506160549 | 63 | 170 | 7.8 | 13.9 | 0.00 | 0.00 | 0.00 | 80 | 1007.7 |
| 20260506160053 | 63 | 206 | 7.0 | 11.3 | 0.00 | 0.00 | 0.00 | 80 | 1007.9 |
| 20260506155548 | 63 | 154 | 3.5 | 11.3 | 0.00 | 0.00 | 0.00 | 81 | 1007.9 |
| 20260506155048 | 62 | 165 | 7.0 | 11.3 | 0.00 | 0.00 | 0.00 | 81 | 1007.9 |
| 20260506154553 | 62 | 167 | 7.0 | 11.3 | 0.00 | 0.00 | 0.00 | 81 | 1008.0 |
| 20260506154046 | 62 | 177 | 3.5 | 12.2 | 0.00 | 0.00 | 0.00 | 82 | 1008.1 |
| 20260506153550 | 61 | 205 | 6.1 | 12.2 | 0.00 | 0.00 | 0.00 | 83 | 1008.0 |
| 20260506153051 | 61 | 146 | 5.2 | 13.0 | 0.00 | 0.00 | 0.00 | 83 | 1008.0 |
| 20260506152549 | 61 | 200 | 5.2 | 13.0 | 0.00 | 0.00 | 0.00 | 84 | 1008.0 |
| 20260506152050 | 61 | 164 | 7.8 | 12.2 | 0.00 | 0.00 | 0.00 | 83 | 1008.0 |
| 20260506151602 | 61 | 157 | 5.2 | 12.2 | 0.00 | 0.00 | 0.00 | 83 | 1008.2 |
| 20260506151053 | 61 | 162 | 9.6 | 12.2 | 0.00 | 0.00 | 0.00 | 82 | 1008.2 |
| 20260506150550 | 61 | 193 | 6.1 | 13.0 | 0.00 | 0.00 | 0.00 | 83 | 1008.0 |
| 20260506150051 | 61 | 167 | 6.1 | 13.0 | 0.00 | 0.00 | 0.00 | 84 | 1007.8 |
| 20260506145549 | 61 | 214 | 8.7 | 13.0 | 0.00 | 0.00 | 0.00 | 83 | 1007.8 |
| 20260506145054 | 61 | 169 | 5.2 | 12.2 | 0.00 | 0.00 | 0.00 | 83 | 1007.9 |
| 20260506144601 | 61 | 160 | 8.7 | 12.2 | 0.00 | 0.00 | 0.00 | 83 | 1007.9 |
| 20260506144047 | 61 | 161 | 7.8 | 11.3 | 0.00 | 0.00 | 0.00 | 83 | 1008.0 |
| 20260506143548 | 61 | 158 | 7.8 | 10.4 | 0.00 | 0.00 | 0.00 | 83 | 1007.8 |
| 20260506143102 | 61 | 172 | 7.8 | 11.3 | 0.00 | 0.00 | 0.00 | 83 | 1007.7 |
| 20260506142549 | 60 | 176 | 7.8 | 11.3 | 0.00 | 0.00 | 0.00 | 84 | 1007.7 |
| 20260506142052 | 60 | 146 | 5.2 | 9.6 | 0.00 | 0.00 | 0.00 | 85 | 1007.7 |
| 20260506141553 | 59 | 149 | 7.0 | 10.4 | 0.00 | 0.00 | 0.00 | 85 | 1007.8 |
| 20260506141046 | 59 | 170 | 7.0 | 10.4 | 0.00 | 0.00 | 0.00 | 85 | 1007.8 |
| 20260506140549 | 59 | 176 | 3.5 | 10.4 | 0.00 | 0.00 | 0.00 | 86 | 1008.1 |
| 20260506140056 | 59 | 150 | 3.5 | 10.4 | 0.00 | 0.00 | 0.00 | 87 | 1008.1 |
| 20260506135549 | 58 | 167 | 5.2 | 9.6 | 0.00 | 0.00 | 0.00 | 86 | 1008.2 |
| 20260506135049 | 58 | 141 | 4.3 | 9.6 | 0.00 | 0.00 | 0.00 | 86 | 1008.2 |
| 20260506134546 | 58 | 162 | 6.1 | 10.4 | 0.00 | 0.00 | 0.00 | 86 | 1008.2 |
| 20260506134049 | 58 | 186 | 6.1 | 10.4 | 0.00 | 0.00 | 0.00 | 86 | 1008.2 |
| 20260506133549 | 58 | 153 | 5.2 | 9.6 | 0.00 | 0.00 | 0.00 | 86 | 1008.2 |
| 20260506133052 | 58 | 151 | 5.2 | 8.7 | 0.00 | 0.00 | 0.00 | 86 | 1008.2 |
| 20260506132549 | 58 | 202 | 4.3 | 8.7 | 0.00 | 0.00 | 0.00 | 86 | 1008.4 |
| 20260506132052 | 58 | 151 | 4.3 | 10.4 | 0.00 | 0.00 | 0.00 | 86 | 1008.3 |
| 20260506131550 | 58 | 154 | 7.0 | 10.4 | 0.00 | 0.00 | 0.00 | 86 | 1008.3 |
| 20260506131050 | 58 | 155 | 2.6 | 8.7 | 0.00 | 0.00 | 0.00 | 86 | 1008.5 |
| 20260506130546 | 58 | 201 | 5.2 | 8.7 | 0.00 | 0.00 | 0.00 | 86 | 1008.3 |
| 20260506130059 | 58 | 134 | 4.3 | 7.8 | 0.00 | 0.00 | 0.00 | 85 | 1008.4 |
| 20260506125550 | 58 | 160 | 2.6 | 7.8 | 0.00 | 0.00 | 0.00 | 85 | 1008.1 |
| 20260506125045 | 58 | 203 | 5.2 | 7.8 | 0.00 | 0.00 | 0.00 | 86 | 1008.2 |
| 20260506124552 | 58 | 203 | 2.6 | 7.0 | 0.00 | 0.00 | 0.00 | 86 | 1008.4 |
| 20260506124045 | 58 | 207 | 4.3 | 7.0 | 0.00 | 0.00 | 0.00 | 86 | 1008.3 |
| 20260506123545 | 58 | 181 | 2.6 | 10.4 | 0.00 | 0.00 | 0.00 | 86 | 1008.5 |
| 20260506123052 | 57 | 200 | 4.3 | 11.3 | 0.00 | 0.00 | 0.00 | 87 | 1008.5 |
| 20260506122545 | 57 | 158 | 7.8 | 11.3 | 0.00 | 0.00 | 0.00 | 87 | 1008.4 |
| 20260506122045 | 57 | 174 | 5.2 | 8.7 | 0.00 | 0.00 | 0.00 | 87 | 1008.3 |
| 20260506121552 | 57 | 135 | 5.2 | 8.7 | 0.00 | 0.00 | 0.00 | 87 | 1008.7 |
| 20260506121045 | 57 | 158 | 3.5 | 6.1 | 0.00 | 0.00 | 0.00 | 87 | 1008.7 |
| 20260506120545 | 57 | 158 | 2.6 | 5.2 | 0.00 | 0.00 | 0.00 | 87 | 1008.9 |
| 20260506120052 | 56 | 169 | 2.6 | 8.7 | 0.00 | 0.00 | 0.00 | 87 | 1008.8 |
| 20260506115545 | 56 | 194 | 5.2 | 8.7 | 0.00 | 0.00 | 0.00 | 87 | 1008.9 |
| 20260506115045 | 56 | 140 | 5.2 | 8.7 | 0.00 | 0.00 | 0.00 | 88 | 1008.8 |
| 20260506114555 | 56 | 155 | 2.6 | 6.1 | 0.00 | 0.00 | 0.00 | 89 | 1008.8 |
| 20260506114045 | 55 | 151 | 3.5 | 6.1 | 0.00 | 0.00 | 0.00 | 88 | 1009.1 |
| 20260506113546 | 55 | 156 | 0.9 | 5.2 | 0.00 | 0.00 | 0.00 | 89 | 1009.1 |
| 20260506113048 | 55 | 158 | 2.6 | 5.2 | 0.00 | 0.00 | 0.00 | 89 | 1009.0 |
| 20260506112546 | 55 | 146 | 0.0 | 3.5 | 0.00 | 0.00 | 0.00 | 89 | 1009.1 |
| 20260506112045 | 54 | 219 | 0.9 | 2.6 | 0.00 | 0.00 | 0.00 | 90 | 1009.2 |
| 20260506111549 | 54 | 190 | 0.9 | 2.6 | 0.00 | 0.00 | 0.00 | 90 | 1009.1 |
| 20260506111045 | 54 | 183 | 0.9 | 3.5 | 0.00 | 0.00 | 0.00 | 90 | 1008.8 |
| 20260506110548 | 54 | 0 | 0.9 | 3.5 | 0.00 | 0.00 | 0.00 | 90 | 1008.9 |
| 20260506110049 | 54 | 199 | 0.9 | 3.5 | 0.00 | 0.00 | 0.00 | 90 | 1008.9 |
| 20260506105545 | 54 | 229 | 0.0 | 5.2 | 0.00 | 0.00 | 0.00 | 91 | 1008.8 |
| 20260506105046 | 53 | 0 | 1.7 | 5.2 | 0.00 | 0.00 | 0.00 | 91 | 1008.9 |
| 20260506104548 | 53 | 162 | 0.9 | 3.5 | 0.00 | 0.00 | 0.00 | 91 | 1008.8 |
| 20260506104045 | 53 | 174 | 0.9 | 4.3 | 0.00 | 0.00 | 0.00 | 91 | 1009.0 |
| 20260506103547 | 52 | 177 | 2.6 | 6.1 | 0.00 | 0.00 | 0.00 | 91 | 1008.8 |
| 20260506103052 | 52 | 156 | 1.7 | 6.1 | 0.00 | 0.00 | 0.00 | 91 | 1008.9 |
| 20260506102546 | 52 | 158 | 2.6 | 6.1 | 0.00 | 0.00 | 0.00 | 91 | 1009.0 |
| 20260506102046 | 52 | 200 | 0.0 | 1.7 | 0.00 | 0.00 | 0.00 | 91 | 1009.1 |
| 20260506101549 | 52 | 238 | 0.0 | 3.5 | 0.00 | 0.00 | 0.00 | 91 | 1009.2 |
| 20260506101045 | 52 | 152 | 0.9 | 5.2 | 0.00 | 0.00 | 0.00 | 91 | 1009.1 |
| 20260506100545 | 52 | 147 | 3.5 | 5.2 | 0.00 | 0.00 | 0.00 | 91 | 1008.9 |
| 20260506100050 | 52 | 163 | 2.6 | 4.3 | 0.00 | 0.00 | 0.00 | 91 | 1008.9 |
| 20260506095546 | 51 | 164 | 1.7 | 4.3 | 0.00 | 0.00 | 0.00 | 92 | 1008.9 |
| 20260506095046 | 51 | 160 | 2.6 | 4.3 | 0.00 | 0.00 | 0.00 | 92 | 1008.9 |
| 20260506094548 | 51 | 178 | 1.7 | 3.5 | 0.00 | 0.00 | 0.00 | 92 | 1008.9 |
| 20260506094046 | 51 | 156 | 0.9 | 2.6 | 0.00 | 0.00 | 0.00 | 92 | 1008.9 |
| 20260506093545 | 51 | 207 | 0.9 | 3.5 | 0.00 | 0.00 | 0.00 | 91 | 1008.8 |
| 20260506093055 | 51 | 0 | 0.9 | 4.3 | 0.00 | 0.00 | 0.00 | 91 | 1008.8 |
| 20260506092550 | 51 | 175 | 2.6 | 4.3 | 0.00 | 0.00 | 0.00 | 91 | 1008.7 |
| 20260506092049 | 51 | 156 | 3.5 | 4.3 | 0.00 | 0.00 | 0.00 | 91 | 1008.6 |
| 20260506091550 | 51 | 157 | 2.6 | 4.3 | 0.00 | 0.00 | 0.00 | 91 | 1008.7 |
| 20260506091048 | 51 | 162 | 1.7 | 5.2 | 0.00 | 0.00 | 0.00 | 91 | 1008.8 |
| 20260506090545 | 51 | 153 | 2.6 | 5.2 | 0.00 | 0.00 | 0.00 | 91 | 1008.7 |
| 20260506090056 | 51 | 174 | 0.9 | 4.3 | 0.00 | 0.00 | 0.00 | 91 | 1008.8 |
| 20260506085545 | 51 | 167 | 2.6 | 4.3 | 0.00 | 0.00 | 0.00 | 90 | 1008.8 |
| 20260506085049 | 51 | 204 | 0.9 | 7.0 | 0.00 | 0.00 | 0.00 | 90 | 1008.7 |
| 20260506084612 | 51 | 187 | 2.6 | 7.0 | 0.00 | 0.00 | 0.00 | 90 | 1008.7 |
| 20260506084050 | 51 | 162 | 3.5 | 5.2 | 0.00 | 0.00 | 0.00 | 90 | 1008.7 |
| 20260506083550 | 52 | 165 | 2.6 | 6.1 | 0.00 | 0.00 | 0.00 | 89 | 1008.7 |
| 20260506083054 | 52 | 150 | 3.5 | 6.1 | 0.00 | 0.00 | 0.00 | 89 | 1008.7 |
| 20260506082550 | 52 | 160 | 3.5 | 5.2 | 0.00 | 0.00 | 0.00 | 89 | 1008.7 |
| 20260506082045 | 52 | 164 | 2.6 | 4.3 | 0.00 | 0.00 | 0.00 | 89 | 1008.7 |
| 20260506081553 | 52 | 151 | 1.7 | 3.5 | 0.00 | 0.00 | 0.00 | 88 | 1008.7 |
| 20260506081049 | 52 | 99 | 1.7 | 2.6 | 0.00 | 0.00 | 0.00 | 88 | 1008.7 |
| 20260506080547 | 52 | 157 | 0.0 | 2.6 | 0.00 | 0.00 | 0.00 | 88 | 1008.8 |
| 20260506073100 | 53 | 89 | 0.0 | 4.3 | 0.00 | 0.00 | 0.00 | 87 | 1008.6 |
| 20260506072545 | 53 | 117 | 0.0 | 4.3 | 0.00 | 0.00 | 0.00 | 86 | 1008.4 |
| 20260506072049 | 53 | 145 | 2.6 | 4.3 | 0.00 | 0.00 | 0.00 | 86 | 1008.2 |
| 20260506071554 | 53 | 149 | 2.6 | 4.3 | 0.00 | 0.00 | 0.00 | 86 | 1008.0 |
| 20260506071045 | 53 | 150 | 1.7 | 5.2 | 0.00 | 0.00 | 0.00 | 86 | 1008.1 |
| 20260506070547 | 53 | 155 | 1.7 | 5.2 | 0.00 | 0.00 | 0.00 | 86 | 1007.9 |